Portada
METAR-TAF:

METAR-TAF

Aeropuertos :

El Oued, Argelia

latitud: 33-30-47N, longitud: 006-46-57E, altitud: 62 m

Observación

El informe se hizo hace 44 minutos, a las 11:00 UTC
Viento 6 kt del sureste
Temperatura 18°C
Humedad 56%
Presión 1035 hPa
Visibilidad 10 km o más
sin nubes por debajo de 1500 m y sin presencia de cumulonimbus.

METAR: DAUO 231100Z 13006KT CAVOK 18/09 Q1035

Hora: 12:44 (11:44 UTC)

Pronóstico

El informe se hizo hace 3 horas y 44 minutos, a las 08:00 UTC
Pronóstico válido del 23 a las 09 UTC al 23 a las 18 UTC
Viento 8 kt del este-sureste
Visibilidad 10 km o más
sin nubes por debajo de 1500 m y sin presencia de cumulonimbus.

TAF: DAUO 230800Z 2309/2318 12008KT CAVOK

Observaciones y pronósticos meteorológicos de más de 4000 aeropuertos (mensajes METAR y TAF).

Los puntos amarillos y rojos representan las estaciones disponibles.

Ponga el ratón en el punto deseado para ver el nombre de la estación.

Haga clic para ver las observaciones y los pronósticos meteorológicos.

Para cambiar el mapa : haga clic en los botones verdes con una cruz de color negro para hacer un zoom, en el botón verde con un guión para alejar o en las flechas verdes para mapas adyacentes.


METAR-TAF: